sensor_id;sensor_type;location;lat;lon;timestamp;pressure;altitude;pressure_sealevel;temperature
70415;BMP280;57837;52.064;113.478;2024-02-21T00:01:28;95956.66;;;-19.73
70415;BMP280;57837;52.064;113.478;2024-02-21T00:04:32;95962.44;;;-19.66
70415;BMP280;57837;52.064;113.478;2024-02-21T00:07:35;95955.66;;;-19.64
70415;BMP280;57837;52.064;113.478;2024-02-21T00:10:40;95960.84;;;-19.74
70415;BMP280;57837;52.064;113.478;2024-02-21T00:13:43;95960.84;;;-19.74
70415;BMP280;57837;52.064;113.478;2024-02-21T00:16:46;95960.00;;;-19.81
70415;BMP280;57837;52.064;113.478;2024-02-21T00:19:49;95960.41;;;-19.63
70415;BMP280;57837;52.064;113.478;2024-02-21T00:22:53;95965.75;;;-19.59
70415;BMP280;57837;52.064;113.478;2024-02-21T00:25:58;95963.50;;;-19.39
70415;BMP280;57837;52.064;113.478;2024-02-21T00:29:02;95974.97;;;-19.32
70415;BMP280;57837;52.064;113.478;2024-02-21T00:32:10;95982.44;;;-19.25
70415;BMP280;57837;52.064;113.478;2024-02-21T00:35:15;95989.84;;;-19.40
70415;BMP280;57837;52.064;113.478;2024-02-21T00:38:19;95986.38;;;-19.30
70415;BMP280;57837;52.064;113.478;2024-02-21T00:41:22;95992.19;;;-19.17
70415;BMP280;57837;52.064;113.478;2024-02-21T00:47:52;95999.00;;;-19.19
70415;BMP280;57837;52.064;113.478;2024-02-21T00:50:55;95992.34;;;-18.54
70415;BMP280;57837;52.064;113.478;2024-02-21T00:53:58;95991.03;;;-17.59
70415;BMP280;57837;52.064;113.478;2024-02-21T00:57:02;96000.75;;;-16.57
70415;BMP280;57837;52.064;113.478;2024-02-21T01:00:07;95999.47;;;-15.82
70415;BMP280;57837;52.064;113.478;2024-02-21T01:03:10;96004.53;;;-15.57
70415;BMP280;57837;52.064;113.478;2024-02-21T01:06:15;95996.84;;;-15.35
70415;BMP280;57837;52.064;113.478;2024-02-21T01:09:19;96003.00;;;-14.81
70415;BMP280;57837;52.064;113.478;2024-02-21T01:12:23;95994.78;;;-14.82
70415;BMP280;57837;52.064;113.478;2024-02-21T01:15:27;95994.91;;;-14.77
70415;BMP280;57837;52.064;113.478;2024-02-21T01:18:30;96003.13;;;-14.51
70415;BMP280;57837;52.064;113.478;2024-02-21T01:21:34;95998.19;;;-14.15
70415;BMP280;57837;52.064;113.478;2024-02-21T01:24:38;95999.47;;;-13.87
70415;BMP280;57837;52.064;113.478;2024-02-21T01:27:41;95999.69;;;-13.59
70415;BMP280;57837;52.064;113.478;2024-02-21T01:30:45;95994.59;;;-13.34
70415;BMP280;57837;52.064;113.478;2024-02-21T01:33:49;95984.47;;;-13.20
70415;BMP280;57837;52.064;113.478;2024-02-21T01:36:53;95980.06;;;-13.37
70415;BMP280;57837;52.064;113.478;2024-02-21T01:39:56;95972.75;;;-13.20
70415;BMP280;57837;52.064;113.478;2024-02-21T01:43:01;95980.78;;;-13.06
70415;BMP280;57837;52.064;113.478;2024-02-21T01:46:05;95977.41;;;-13.12
70415;BMP280;57837;52.064;113.478;2024-02-21T01:49:09;95983.41;;;-12.78
70415;BMP280;57837;52.064;113.478;2024-02-21T01:52:15;95983.00;;;-12.75
70415;BMP280;57837;52.064;113.478;2024-02-21T01:55:19;95982.88;;;-12.80
70415;BMP280;57837;52.064;113.478;2024-02-21T01:58:24;95977.69;;;-12.55
70415;BMP280;57837;52.064;113.478;2024-02-21T02:01:29;95976.72;;;-12.54
70415;BMP280;57837;52.064;113.478;2024-02-21T02:04:33;95973.34;;;-12.36
70415;BMP280;57837;52.064;113.478;2024-02-21T02:07:37;95961.47;;;-12.17
70415;BMP280;57837;52.064;113.478;2024-02-21T02:10:42;95953.81;;;-12.27
70415;BMP280;57837;52.064;113.478;2024-02-21T02:13:46;95962.13;;;-12.10
70415;BMP280;57837;52.064;113.478;2024-02-21T02:16:50;95960.63;;;-12.23
70415;BMP280;57837;52.064;113.478;2024-02-21T02:19:54;95961.50;;;-11.89
70415;BMP280;57837;52.064;113.478;2024-02-21T02:22:59;95956.19;;;-11.64
70415;BMP280;57837;52.064;113.478;2024-02-21T02:26:04;95949.88;;;-11.54
70415;BMP280;57837;52.064;113.478;2024-02-21T02:29:10;95944.66;;;-11.53
70415;BMP280;57837;52.064;113.478;2024-02-21T02:32:14;95945.22;;;-11.79
70415;BMP280;57837;52.064;113.478;2024-02-21T02:35:18;95944.97;;;-11.78
70415;BMP280;57837;52.064;113.478;2024-02-21T02:38:22;95943.09;;;-11.71
70415;BMP280;57837;52.064;113.478;2024-02-21T02:41:25;95937.19;;;-11.65
70415;BMP280;57837;52.064;113.478;2024-02-21T02:44:29;95941.75;;;-11.62
70415;BMP280;57837;52.064;113.478;2024-02-21T02:47:32;95951.81;;;-11.56
70415;BMP280;57837;52.064;113.478;2024-02-21T02:50:38;95940.25;;;-11.46
70415;BMP280;57837;52.064;113.478;2024-02-21T02:53:41;95952.53;;;-11.27
70415;BMP280;57837;52.064;113.478;2024-02-21T02:56:45;95952.78;;;-11.29
70415;BMP280;57837;52.064;113.478;2024-02-21T02:59:50;95934.63;;;-11.24
70415;BMP280;57837;52.064;113.478;2024-02-21T03:02:53;95925.00;;;-10.94
70415;BMP280;57837;52.064;113.478;2024-02-21T03:05:57;95934.72;;;-10.81
70415;BMP280;57837;52.064;113.478;2024-02-21T03:09:01;95916.31;;;-10.53
70415;BMP280;57837;52.064;113.478;2024-02-21T03:12:05;95911.75;;;-10.56
70415;BMP280;57837;52.064;113.478;2024-02-21T03:15:10;95920.78;;;-10.55
70415;BMP280;57837;52.064;113.478;2024-02-21T03:18:13;95918.81;;;-10.53
70415;BMP280;57837;52.064;113.478;2024-02-21T03:21:16;95914.97;;;-10.60
70415;BMP280;57837;52.064;113.478;2024-02-21T03:24:20;95912.69;;;-10.40
70415;BMP280;57837;52.064;113.478;2024-02-21T03:27:23;95911.03;;;-10.29
70415;BMP280;57837;52.064;113.478;2024-02-21T03:30:26;95909.28;;;-10.29
70415;BMP280;57837;52.064;113.478;2024-02-21T03:33:30;95904.19;;;-10.12
70415;BMP280;57837;52.064;113.478;2024-02-21T03:36:33;95908.09;;;-9.99
70415;BMP280;57837;52.064;113.478;2024-02-21T03:39:37;95897.03;;;-10.03
70415;BMP280;57837;52.064;113.478;2024-02-21T03:42:40;95902.63;;;-10.23
70415;BMP280;57837;52.064;113.478;2024-02-21T03:45:44;95897.78;;;-10.30
70415;BMP280;57837;52.064;113.478;2024-02-21T03:48:47;95889.25;;;-10.34
70415;BMP280;57837;52.064;113.478;2024-02-21T03:51:50;95893.25;;;-10.33
70415;BMP280;57837;52.064;113.478;2024-02-21T03:54:53;95891.59;;;-10.22
70415;BMP280;57837;52.064;113.478;2024-02-21T03:57:58;95884.72;;;-10.10
70415;BMP280;57837;52.064;113.478;2024-02-21T04:01:03;95888.34;;;-9.96
70415;BMP280;57837;52.064;113.478;2024-02-21T04:04:07;95898.59;;;-9.70
70415;BMP280;57837;52.064;113.478;2024-02-21T04:07:10;95897.41;;;-9.63
70415;BMP280;57837;52.064;113.478;2024-02-21T04:10:14;95892.88;;;-9.66
70415;BMP280;57837;52.064;113.478;2024-02-21T04:13:17;95888.69;;;-9.55
70415;BMP280;57837;52.064;113.478;2024-02-21T04:16:21;95892.09;;;-9.34
70415;BMP280;57837;52.064;113.478;2024-02-21T04:19:25;95890.94;;;-9.16
70415;BMP280;57837;52.064;113.478;2024-02-21T04:22:29;95877.31;;;-9.31
70415;BMP280;57837;52.064;113.478;2024-02-21T04:25:32;95878.31;;;-9.32
70415;BMP280;57837;52.064;113.478;2024-02-21T04:28:36;95881.66;;;-9.21
70415;BMP280;57837;52.064;113.478;2024-02-21T04:31:39;95878.06;;;-9.30
70415;BMP280;57837;52.064;113.478;2024-02-21T04:34:42;95872.06;;;-9.29
70415;BMP280;57837;52.064;113.478;2024-02-21T04:37:45;95858.94;;;-9.46
70415;BMP280;57837;52.064;113.478;2024-02-21T04:40:49;95864.78;;;-9.31
70415;BMP280;57837;52.064;113.478;2024-02-21T04:43:53;95860.56;;;-9.25
70415;BMP280;57837;52.064;113.478;2024-02-21T04:46:56;95848.13;;;-9.10
70415;BMP280;57837;52.064;113.478;2024-02-21T04:50:01;95843.13;;;-9.00
70415;BMP280;57837;52.064;113.478;2024-02-21T04:53:05;95845.13;;;-9.07
70415;BMP280;57837;52.064;113.478;2024-02-21T04:56:09;95838.25;;;-9.22
70415;BMP280;57837;52.064;113.478;2024-02-21T04:59:13;95835.75;;;-9.22
70415;BMP280;57837;52.064;113.478;2024-02-21T05:02:17;95838.75;;;-9.25
70415;BMP280;57837;52.064;113.478;2024-02-21T05:05:20;95842.50;;;-9.22
70415;BMP280;57837;52.064;113.478;2024-02-21T05:08:24;95838.50;;;-9.23
70415;BMP280;57837;52.064;113.478;2024-02-21T05:11:27;95836.22;;;-9.30
70415;BMP280;57837;52.064;113.478;2024-02-21T05:14:31;95836.53;;;-9.16
70415;BMP280;57837;52.064;113.478;2024-02-21T05:17:34;95834.28;;;-9.12
70415;BMP280;57837;52.064;113.478;2024-02-21T05:20:38;95825.56;;;-9.10
70415;BMP280;57837;52.064;113.478;2024-02-21T05:23:42;95835.84;;;-9.06
70415;BMP280;57837;52.064;113.478;2024-02-21T05:26:46;95825.56;;;-9.05
70415;BMP280;57837;52.064;113.478;2024-02-21T05:29:49;95832.34;;;-9.05
70415;BMP280;57837;52.064;113.478;2024-02-21T05:32:54;95820.81;;;-9.01
70415;BMP280;57837;52.064;113.478;2024-02-21T05:35:57;95823.31;;;-9.01
70415;BMP280;57837;52.064;113.478;2024-02-21T05:39:01;95830.34;;;-8.98
70415;BMP280;57837;52.064;113.478;2024-02-21T05:42:05;95818.88;;;-8.84
70415;BMP280;57837;52.064;113.478;2024-02-21T05:45:09;95825.41;;;-8.83
70415;BMP280;57837;52.064;113.478;2024-02-21T05:48:13;95821.16;;;-8.72
70415;BMP280;57837;52.064;113.478;2024-02-21T05:51:17;95812.66;;;-8.56
70415;BMP280;57837;52.064;113.478;2024-02-21T05:54:20;95805.16;;;-8.51
70415;BMP280;57837;52.064;113.478;2024-02-21T05:57:24;95806.91;;;-8.56
70415;BMP280;57837;52.064;113.478;2024-02-21T06:00:28;95804.63;;;-8.48
70415;BMP280;57837;52.064;113.478;2024-02-21T06:03:33;95795.63;;;-8.39
70415;BMP280;57837;52.064;113.478;2024-02-21T06:06:37;95790.88;;;-8.30
70415;BMP280;57837;52.064;113.478;2024-02-21T06:09:40;95788.13;;;-8.28
70415;BMP280;57837;52.064;113.478;2024-02-21T06:12:44;95796.66;;;-8.09
70415;BMP280;57837;52.064;113.478;2024-02-21T06:15:48;95798.66;;;-7.96
70415;BMP280;57837;52.064;113.478;2024-02-21T06:18:53;95793.09;;;-7.83
70415;BMP280;57837;52.064;113.478;2024-02-21T06:21:57;95795.88;;;-7.84
70415;BMP280;57837;52.064;113.478;2024-02-21T06:25:01;95793.84;;;-7.82
70415;BMP280;57837;52.064;113.478;2024-02-21T06:28:05;95797.09;;;-7.72
70415;BMP280;57837;52.064;113.478;2024-02-21T06:31:09;95792.81;;;-7.66
70415;BMP280;57837;52.064;113.478;2024-02-21T06:34:13;95794.38;;;-7.75
70415;BMP280;57837;52.064;113.478;2024-02-21T06:37:17;95785.78;;;-7.64
70415;BMP280;57837;52.064;113.478;2024-02-21T06:40:23;95779.28;;;-7.75
70415;BMP280;57837;52.064;113.478;2024-02-21T06:43:27;95778.53;;;-7.86
70415;BMP280;57837;52.064;113.478;2024-02-21T06:46:31;95781.50;;;-7.63
70415;BMP280;57837;52.064;113.478;2024-02-21T06:49:37;95774.19;;;-7.60
70415;BMP280;57837;52.064;113.478;2024-02-21T06:52:41;95771.69;;;-7.55
70415;BMP280;57837;52.064;113.478;2024-02-21T06:55:46;95769.41;;;-7.41
70415;BMP280;57837;52.064;113.478;2024-02-21T06:58:49;95764.31;;;-7.31
70415;BMP280;57837;52.064;113.478;2024-02-21T07:01:54;95761.28;;;-7.33
70415;BMP280;57837;52.064;113.478;2024-02-21T07:05:00;95754.75;;;-7.34
70415;BMP280;57837;52.064;113.478;2024-02-21T07:08:04;95743.41;;;-7.26
70415;BMP280;57837;52.064;113.478;2024-02-21T07:11:09;95745.75;;;-7.45
70415;BMP280;57837;52.064;113.478;2024-02-21T07:14:14;95751.22;;;-7.33
70415;BMP280;57837;52.064;113.478;2024-02-21T07:17:18;95760.78;;;-7.30
70415;BMP280;57837;52.064;113.478;2024-02-21T07:20:23;95755.31;;;-7.42
70415;BMP280;57837;52.064;113.478;2024-02-21T07:23:26;95753.31;;;-7.50
70415;BMP280;57837;52.064;113.478;2024-02-21T07:26:31;95744.78;;;-7.44
70415;BMP280;57837;52.064;113.478;2024-02-21T07:29:35;95741.16;;;-7.28
70415;BMP280;57837;52.064;113.478;2024-02-21T07:32:39;95751.72;;;-7.26
70415;BMP280;57837;52.064;113.478;2024-02-21T07:35:43;95749.94;;;-7.25
70415;BMP280;57837;52.064;113.478;2024-02-21T07:38:48;95744.47;;;-7.37
70415;BMP280;57837;52.064;113.478;2024-02-21T07:41:53;95752.97;;;-7.28
70415;BMP280;57837;52.064;113.478;2024-02-21T07:44:57;95752.81;;;-7.42
70415;BMP280;57837;52.064;113.478;2024-02-21T07:48:00;95755.00;;;-7.35
70415;BMP280;57837;52.064;113.478;2024-02-21T07:51:05;95755.75;;;-7.30
70415;BMP280;57837;52.064;113.478;2024-02-21T07:54:08;95747.16;;;-7.24
70415;BMP280;57837;52.064;113.478;2024-02-21T07:57:18;95754.72;;;-7.19
70415;BMP280;57837;52.064;113.478;2024-02-21T08:00:22;95750.69;;;-7.25
70415;BMP280;57837;52.064;113.478;2024-02-21T08:03:26;95748.91;;;-7.14
70415;BMP280;57837;52.064;113.478;2024-02-21T08:06:30;95763.19;;;-7.10
70415;BMP280;57837;52.064;113.478;2024-02-21T08:09:34;95770.03;;;-7.15
70415;BMP280;57837;52.064;113.478;2024-02-21T08:12:38;95772.31;;;-7.24
70415;BMP280;57837;52.064;113.478;2024-02-21T08:15:42;95771.06;;;-7.26
70415;BMP280;57837;52.064;113.478;2024-02-21T08:18:46;95765.75;;;-7.15
70415;BMP280;57837;52.064;113.478;2024-02-21T08:21:50;95757.16;;;-7.08
70415;BMP280;57837;52.064;113.478;2024-02-21T08:24:54;95748.31;;;-7.01
70415;BMP280;57837;52.064;113.478;2024-02-21T08:27:59;95752.03;;;-6.88
70415;BMP280;57837;52.064;113.478;2024-02-21T08:31:03;95750.56;;;-6.94
70415;BMP280;57837;52.064;113.478;2024-02-21T08:34:07;95752.56;;;-6.91
70415;BMP280;57837;52.064;113.478;2024-02-21T08:37:11;95758.59;;;-6.97
70415;BMP280;57837;52.064;113.478;2024-02-21T08:40:15;95752.19;;;-7.19
70415;BMP280;57837;52.064;113.478;2024-02-21T08:43:22;95751.16;;;-7.13
70415;BMP280;57837;52.064;113.478;2024-02-21T08:46:26;95753.66;;;-7.07
70415;BMP280;57837;52.064;113.478;2024-02-21T08:49:31;95757.72;;;-7.17
70415;BMP280;57837;52.064;113.478;2024-02-21T08:52:37;95758.00;;;-7.33
70415;BMP280;57837;52.064;113.478;2024-02-21T08:55:41;95762.56;;;-7.35
70415;BMP280;57837;52.064;113.478;2024-02-21T08:58:44;95768.38;;;-7.40
70415;BMP280;57837;52.064;113.478;2024-02-21T09:01:49;95767.97;;;-7.67
70415;BMP280;57837;52.064;113.478;2024-02-21T09:04:52;95771.72;;;-7.70
70415;BMP280;57837;52.064;113.478;2024-02-21T09:07:56;95776.28;;;-7.77
70415;BMP280;57837;52.064;113.478;2024-02-21T09:11:00;95770.97;;;-7.91
70415;BMP280;57837;52.064;113.478;2024-02-21T09:14:04;95755.97;;;-8.11
70415;BMP280;57837;52.064;113.478;2024-02-21T09:17:09;95758.47;;;-8.26
70415;BMP280;57837;52.064;113.478;2024-02-21T09:20:12;95754.47;;;-8.32
70415;BMP280;57837;52.064;113.478;2024-02-21T09:23:19;95763.25;;;-8.35
70415;BMP280;57837;52.064;113.478;2024-02-21T09:26:23;95766.00;;;-8.37
70415;BMP280;57837;52.064;113.478;2024-02-21T09:29:27;95762.25;;;-8.39
70415;BMP280;57837;52.064;113.478;2024-02-21T09:32:31;95768.25;;;-8.45
70415;BMP280;57837;52.064;113.478;2024-02-21T09:35:36;95763.47;;;-8.62
70415;BMP280;57837;52.064;113.478;2024-02-21T09:38:40;95775.50;;;-8.79
70415;BMP280;57837;52.064;113.478;2024-02-21T09:41:50;95774.16;;;-9.02
70415;BMP280;57837;52.064;113.478;2024-02-21T09:44:58;95777.63;;;-9.13
70415;BMP280;57837;52.064;113.478;2024-02-21T09:48:20;95780.19;;;-9.08
70415;BMP280;57837;52.064;113.478;2024-02-21T09:51:30;95789.66;;;-9.15
70415;BMP280;57837;52.064;113.478;2024-02-21T09:54:35;95790.28;;;-9.40
70415;BMP280;57837;52.064;113.478;2024-02-21T09:57:39;95786.72;;;-9.55
70415;BMP280;57837;52.064;113.478;2024-02-21T10:00:43;95786.66;;;-9.65
70415;BMP280;57837;52.064;113.478;2024-02-21T10:03:47;95784.84;;;-9.74
70415;BMP280;57837;52.064;113.478;2024-02-21T10:06:51;95797.63;;;-9.76
70415;BMP280;57837;52.064;113.478;2024-02-21T10:10:02;95796.31;;;-9.78
70415;BMP280;57837;52.064;113.478;2024-02-21T10:13:05;95801.53;;;-9.90
70415;BMP280;57837;52.064;113.478;2024-02-21T10:16:09;95797.19;;;-10.00
70415;BMP280;57837;52.064;113.478;2024-02-21T10:19:19;95813.22;;;-10.01
70415;BMP280;57837;52.064;113.478;2024-02-21T10:22:24;95813.34;;;-10.18
70415;BMP280;57837;52.064;113.478;2024-02-21T10:25:28;95810.63;;;-10.38
70415;BMP280;57837;52.064;113.478;2024-02-21T10:28:34;95808.44;;;-10.56
70415;BMP280;57837;52.064;113.478;2024-02-21T10:31:38;95809.34;;;-10.67
70415;BMP280;57837;52.064;113.478;2024-02-21T10:34:43;95806.72;;;-10.78
70415;BMP280;57837;52.064;113.478;2024-02-21T10:37:47;95808.03;;;-10.75
70415;BMP280;57837;52.064;113.478;2024-02-21T10:40:50;95813.78;;;-10.75
70415;BMP280;57837;52.064;113.478;2024-02-21T10:43:56;95821.28;;;-10.75
70415;BMP280;57837;52.064;113.478;2024-02-21T10:47:10;95819.34;;;-10.67
70415;BMP280;57837;52.064;113.478;2024-02-21T10:50:15;95823.78;;;-10.75
70415;BMP280;57837;52.064;113.478;2024-02-21T10:56:46;95833.66;;;-10.85
70415;BMP280;57837;52.064;113.478;2024-02-21T10:59:55;95838.31;;;-10.93
70415;BMP280;57837;52.064;113.478;2024-02-21T11:02:59;95842.66;;;-11.06
70415;BMP280;57837;52.064;113.478;2024-02-21T11:06:04;95849.88;;;-11.09
70415;BMP280;57837;52.064;113.478;2024-02-21T11:09:11;95860.78;;;-11.15
70415;BMP280;57837;52.064;113.478;2024-02-21T11:12:20;95856.19;;;-11.23
70415;BMP280;57837;52.064;113.478;2024-02-21T11:15:26;95859.44;;;-11.40
70415;BMP280;57837;52.064;113.478;2024-02-21T11:18:31;95858.13;;;-11.42
70415;BMP280;57837;52.064;113.478;2024-02-21T11:21:36;95856.94;;;-11.40
70415;BMP280;57837;52.064;113.478;2024-02-21T11:24:41;95869.56;;;-11.46
70415;BMP280;57837;52.064;113.478;2024-02-21T11:27:46;95871.47;;;-11.53
70415;BMP280;57837;52.064;113.478;2024-02-21T11:30:50;95862.41;;;-11.60
70415;BMP280;57837;52.064;113.478;2024-02-21T11:33:54;95873.59;;;-11.62
70415;BMP280;57837;52.064;113.478;2024-02-21T11:36:58;95869.03;;;-11.65
70415;BMP280;57837;52.064;113.478;2024-02-21T11:40:02;95882.50;;;-11.66
70415;BMP280;57837;52.064;113.478;2024-02-21T11:43:07;95871.00;;;-11.67
70415;BMP280;57837;52.064;113.478;2024-02-21T11:46:10;95865.91;;;-11.72
70415;BMP280;57837;52.064;113.478;2024-02-21T11:49:14;95873.03;;;-11.81
70415;BMP280;57837;52.064;113.478;2024-02-21T11:52:18;95866.53;;;-11.82
70415;BMP280;57837;52.064;113.478;2024-02-21T11:55:23;95877.63;;;-11.90
70415;BMP280;57837;52.064;113.478;2024-02-21T11:58:27;95877.91;;;-12.03
70415;BMP280;57837;52.064;113.478;2024-02-21T12:01:31;95870.75;;;-11.99
70415;BMP280;57837;52.064;113.478;2024-02-21T12:04:35;95877.25;;;-11.98
70415;BMP280;57837;52.064;113.478;2024-02-21T12:07:40;95870.25;;;-12.13
70415;BMP280;57837;52.064;113.478;2024-02-21T12:10:44;95877.78;;;-12.25
70415;BMP280;57837;52.064;113.478;2024-02-21T12:14:03;95880.91;;;-12.29
70415;BMP280;57837;52.064;113.478;2024-02-21T12:17:09;95874.41;;;-12.30
70415;BMP280;57837;52.064;113.478;2024-02-21T12:20:14;95875.78;;;-12.39
70415;BMP280;57837;52.064;113.478;2024-02-21T12:23:19;95875.66;;;-12.45
70415;BMP280;57837;52.064;113.478;2024-02-21T12:26:23;95878.63;;;-12.71
70415;BMP280;57837;52.064;113.478;2024-02-21T12:29:26;95869.59;;;-12.89
70415;BMP280;57837;52.064;113.478;2024-02-21T12:32:31;95877.47;;;-13.04
70415;BMP280;57837;52.064;113.478;2024-02-21T12:35:34;95878.44;;;-13.05
70415;BMP280;57837;52.064;113.478;2024-02-21T12:38:38;95869.56;;;-13.12
70415;BMP280;57837;52.064;113.478;2024-02-21T12:41:43;95873.38;;;-13.21
70415;BMP280;57837;52.064;113.478;2024-02-21T12:44:47;95868.06;;;-13.25
70415;BMP280;57837;52.064;113.478;2024-02-21T12:47:51;95875.28;;;-13.47
70415;BMP280;57837;52.064;113.478;2024-02-21T12:50:54;95875.25;;;-13.70
70415;BMP280;57837;52.064;113.478;2024-02-21T12:53:57;95870.78;;;-13.80
70415;BMP280;57837;52.064;113.478;2024-02-21T12:57:00;95867.53;;;-13.80
70415;BMP280;57837;52.064;113.478;2024-02-21T13:00:06;95876.88;;;-13.94
70415;BMP280;57837;52.064;113.478;2024-02-21T13:03:11;95883.28;;;-13.98
70415;BMP280;57837;52.064;113.478;2024-02-21T13:06:15;95886.63;;;-13.93
70415;BMP280;57837;52.064;113.478;2024-02-21T13:09:20;95878.81;;;-13.96
70415;BMP280;57837;52.064;113.478;2024-02-21T13:12:24;95879.06;;;-13.98
70415;BMP280;57837;52.064;113.478;2024-02-21T13:15:29;95887.72;;;-13.89
70415;BMP280;57837;52.064;113.478;2024-02-21T13:18:35;95888.00;;;-13.97
70415;BMP280;57837;52.064;113.478;2024-02-21T13:21:41;95890.13;;;-14.12
70415;BMP280;57837;52.064;113.478;2024-02-21T13:24:45;95896.13;;;-14.20
70415;BMP280;57837;52.064;113.478;2024-02-21T13:27:48;95894.75;;;-14.34
70415;BMP280;57837;52.064;113.478;2024-02-21T13:30:52;95899.88;;;-14.47
70415;BMP280;57837;52.064;113.478;2024-02-21T13:33:55;95910.50;;;-14.58
70415;BMP280;57837;52.064;113.478;2024-02-21T13:36:59;95914.84;;;-14.72
70415;BMP280;57837;52.064;113.478;2024-02-21T13:40:02;95916.28;;;-14.64
70415;BMP280;57837;52.064;113.478;2024-02-21T13:43:08;95919.63;;;-14.52
70415;BMP280;57837;52.064;113.478;2024-02-21T13:46:13;95913.25;;;-14.48
70415;BMP280;57837;52.064;113.478;2024-02-21T13:49:18;95919.91;;;-14.42
70415;BMP280;57837;52.064;113.478;2024-02-21T13:52:22;95923.97;;;-14.48
70415;BMP280;57837;52.064;113.478;2024-02-21T13:55:25;95923.75;;;-14.46
70415;BMP280;57837;52.064;113.478;2024-02-21T13:58:29;95929.25;;;-14.62
70415;BMP280;57837;52.064;113.478;2024-02-21T14:01:33;95938.56;;;-14.76
70415;BMP280;57837;52.064;113.478;2024-02-21T14:04:36;95928.19;;;-14.73
70415;BMP280;57837;52.064;113.478;2024-02-21T14:07:39;95934.84;;;-14.67
70415;BMP280;57837;52.064;113.478;2024-02-21T14:10:42;95938.50;;;-14.69
70415;BMP280;57837;52.064;113.478;2024-02-21T14:13:46;95933.31;;;-14.68
70415;BMP280;57837;52.064;113.478;2024-02-21T14:16:50;95928.97;;;-14.73
70415;BMP280;57837;52.064;113.478;2024-02-21T14:19:54;95936.81;;;-14.76
70415;BMP280;57837;52.064;113.478;2024-02-21T14:22:58;95930.22;;;-14.82
70415;BMP280;57837;52.064;113.478;2024-02-21T14:26:01;95935.97;;;-14.88
70415;BMP280;57837;52.064;113.478;2024-02-21T14:29:06;95931.25;;;-14.96
70415;BMP280;57837;52.064;113.478;2024-02-21T14:32:12;95939.50;;;-15.02
70415;BMP280;57837;52.064;113.478;2024-02-21T14:35:16;95934.31;;;-14.94
70415;BMP280;57837;52.064;113.478;2024-02-21T14:38:20;95936.25;;;-15.03
70415;BMP280;57837;52.064;113.478;2024-02-21T14:41:23;95936.34;;;-15.09
70415;BMP280;57837;52.064;113.478;2024-02-21T14:44:27;95942.94;;;-15.28
70415;BMP280;57837;52.064;113.478;2024-02-21T14:47:33;95935.75;;;-15.36
70415;BMP280;57837;52.064;113.478;2024-02-21T14:50:36;95948.13;;;-15.30
70415;BMP280;57837;52.064;113.478;2024-02-21T14:53:39;95944.88;;;-15.30
70415;BMP280;57837;52.064;113.478;2024-02-21T14:56:42;95942.25;;;-15.42
70415;BMP280;57837;52.064;113.478;2024-02-21T14:59:46;95951.59;;;-15.37
70415;BMP280;57837;52.064;113.478;2024-02-21T15:02:53;95947.16;;;-15.29
70415;BMP280;57837;52.064;113.478;2024-02-21T15:05:55;95957.19;;;-15.17
70415;BMP280;57837;52.064;113.478;2024-02-21T15:08:59;95959.63;;;-15.10
70415;BMP280;57837;52.064;113.478;2024-02-21T15:12:02;95950.19;;;-14.95
70415;BMP280;57837;52.064;113.478;2024-02-21T15:15:05;95955.13;;;-14.95
70415;BMP280;57837;52.064;113.478;2024-02-21T15:18:08;95948.84;;;-14.98
70415;BMP280;57837;52.064;113.478;2024-02-21T15:21:13;95944.84;;;-14.99
70415;BMP280;57837;52.064;113.478;2024-02-21T15:24:17;95953.41;;;-14.94
70415;BMP280;57837;52.064;113.478;2024-02-21T15:27:21;95951.31;;;-14.98
70415;BMP280;57837;52.064;113.478;2024-02-21T15:30:24;95946.94;;;-14.95
70415;BMP280;57837;52.064;113.478;2024-02-21T15:33:28;95947.53;;;-15.00
70415;BMP280;57837;52.064;113.478;2024-02-21T15:36:31;95949.50;;;-15.09
70415;BMP280;57837;52.064;113.478;2024-02-21T15:39:37;95949.69;;;-15.35
70415;BMP280;57837;52.064;113.478;2024-02-21T15:42:41;95940.41;;;-15.53
70415;BMP280;57837;52.064;113.478;2024-02-21T15:45:45;95945.78;;;-15.56
70415;BMP280;57837;52.064;113.478;2024-02-21T15:48:48;95937.81;;;-15.65
70415;BMP280;57837;52.064;113.478;2024-02-21T15:51:57;95944.50;;;-15.72
70415;BMP280;57837;52.064;113.478;2024-02-21T15:55:01;95946.91;;;-15.90
70415;BMP280;57837;52.064;113.478;2024-02-21T15:58:05;95946.50;;;-15.94
70415;BMP280;57837;52.064;113.478;2024-02-21T16:01:09;95946.13;;;-15.97
70415;BMP280;57837;52.064;113.478;2024-02-21T16:04:14;95949.78;;;-16.00
70415;BMP280;57837;52.064;113.478;2024-02-21T16:07:18;95950.75;;;-16.01
70415;BMP280;57837;52.064;113.478;2024-02-21T16:10:22;95951.28;;;-15.99
70415;BMP280;57837;52.064;113.478;2024-02-21T16:13:26;95942.53;;;-16.08
70415;BMP280;57837;52.064;113.478;2024-02-21T16:16:30;95947.72;;;-16.16
70415;BMP280;57837;52.064;113.478;2024-02-21T16:19:34;95934.97;;;-16.20
70415;BMP280;57837;52.064;113.478;2024-02-21T16:22:38;95948.88;;;-16.19
70415;BMP280;57837;52.064;113.478;2024-02-21T16:25:42;95936.69;;;-16.20
70415;BMP280;57837;52.064;113.478;2024-02-21T16:28:46;95946.03;;;-16.22
70415;BMP280;57837;52.064;113.478;2024-02-21T16:31:50;95941.09;;;-16.29
70415;BMP280;57837;52.064;113.478;2024-02-21T16:34:53;95940.72;;;-16.32
70415;BMP280;57837;52.064;113.478;2024-02-21T16:37:57;95943.59;;;-16.49
70415;BMP280;57837;52.064;113.478;2024-02-21T16:41:00;95944.72;;;-16.51
70415;BMP280;57837;52.064;113.478;2024-02-21T16:44:04;95930.66;;;-16.57
70415;BMP280;57837;52.064;113.478;2024-02-21T16:47:08;95951.78;;;-16.68
70415;BMP280;57837;52.064;113.478;2024-02-21T16:50:11;95945.69;;;-16.59
70415;BMP280;57837;52.064;113.478;2024-02-21T16:53:15;95939.81;;;-16.65
70415;BMP280;57837;52.064;113.478;2024-02-21T16:56:18;95945.88;;;-16.67
70415;BMP280;57837;52.064;113.478;2024-02-21T16:59:21;95942.06;;;-16.56
70415;BMP280;57837;52.064;113.478;2024-02-21T17:02:25;95950.66;;;-16.52
70415;BMP280;57837;52.064;113.478;2024-02-21T17:05:27;95939.97;;;-16.40
70415;BMP280;57837;52.064;113.478;2024-02-21T17:08:32;95941.66;;;-16.27